sensor_id;sensor_type;location;lat;lon;timestamp;pressure;altitude;pressure_sealevel;temperature;humidity
9709;BME280;4893;42.024;23.098;2022-12-04T00:01:21;97754.56;;;5.01;100.00
9709;BME280;4893;42.024;23.098;2022-12-04T00:03:51;97753.63;;;4.91;100.00
9709;BME280;4893;42.024;23.098;2022-12-04T00:06:18;97769.19;;;5.00;100.00
9709;BME280;4893;42.024;23.098;2022-12-04T00:08:45;97756.28;;;5.11;100.00
9709;BME280;4893;42.024;23.098;2022-12-04T00:11:12;97561.50;;;3.95;100.00
9709;BME280;4893;42.024;23.098;2022-12-04T00:13:38;97679.63;;;4.72;100.00
9709;BME280;4893;42.024;23.098;2022-12-04T00:16:06;97762.34;;;5.21;100.00
9709;BME280;4893;42.024;23.098;2022-12-04T00:18:33;97758.81;;;5.22;100.00
9709;BME280;4893;42.024;23.098;2022-12-04T00:20:58;97734.31;;;5.07;100.00
9709;BME280;4893;42.024;23.098;2022-12-04T00:23:24;97751.13;;;5.11;100.00
9709;BME280;4893;42.024;23.098;2022-12-04T00:25:49;97631.78;;;4.27;100.00
9709;BME280;4893;42.024;23.098;2022-12-04T00:28:15;97689.44;;;4.67;100.00
9709;BME280;4893;42.024;23.098;2022-12-04T00:30:42;97705.00;;;4.77;100.00
9709;BME280;4893;42.024;23.098;2022-12-04T00:33:08;97682.47;;;4.58;100.00
9709;BME280;4893;42.024;23.098;2022-12-04T00:35:34;97748.59;;;5.00;100.00
9709;BME280;4893;42.024;23.098;2022-12-04T00:37:59;97776.38;;;5.17;100.00
9709;BME280;4893;42.024;23.098;2022-12-04T00:40:24;97693.56;;;4.70;100.00
9709;BME280;4893;42.024;23.098;2022-12-04T00:42:50;97707.13;;;4.72;100.00
9709;BME280;4893;42.024;23.098;2022-12-04T00:45:15;97715.06;;;4.80;100.00
9709;BME280;4893;42.024;23.098;2022-12-04T00:47:41;97751.22;;;5.21;100.00
9709;BME280;4893;42.024;23.098;2022-12-04T00:50:07;97737.91;;;5.16;100.00
9709;BME280;4893;42.024;23.098;2022-12-04T00:52:32;97679.38;;;4.86;100.00
9709;BME280;4893;42.024;23.098;2022-12-04T00:54:58;97683.81;;;4.84;100.00
9709;BME280;4893;42.024;23.098;2022-12-04T00:57:23;97681.03;;;4.76;100.00
9709;BME280;4893;42.024;23.098;2022-12-04T00:59:48;97754.38;;;5.24;100.00
9709;BME280;4893;42.024;23.098;2022-12-04T01:02:14;97759.03;;;5.30;100.00
9709;BME280;4893;42.024;23.098;2022-12-04T01:04:39;97681.03;;;4.76;100.00
9709;BME280;4893;42.024;23.098;2022-12-04T01:07:04;97755.78;;;5.17;100.00
9709;BME280;4893;42.024;23.098;2022-12-04T01:09:31;97654.41;;;4.55;100.00
9709;BME280;4893;42.024;23.098;2022-12-04T01:11:57;97746.91;;;5.21;100.00
9709;BME280;4893;42.024;23.098;2022-12-04T01:14:22;97660.00;;;4.71;100.00
9709;BME280;4893;42.024;23.098;2022-12-04T01:16:47;97571.25;;;4.12;100.00
9709;BME280;4893;42.024;23.098;2022-12-04T01:19:13;97724.22;;;5.04;100.00
9709;BME280;4893;42.024;23.098;2022-12-04T01:21:39;97739.66;;;5.15;100.00
9709;BME280;4893;42.024;23.098;2022-12-04T01:24:05;97654.63;;;4.63;100.00
9709;BME280;4893;42.024;23.098;2022-12-04T01:26:31;97730.31;;;5.03;100.00
9709;BME280;4893;42.024;23.098;2022-12-04T01:28:56;97738.63;;;5.07;100.00
9709;BME280;4893;42.024;23.098;2022-12-04T01:31:22;97740.38;;;5.06;100.00
9709;BME280;4893;42.024;23.098;2022-12-04T01:33:48;97728.91;;;5.10;100.00
9709;BME280;4893;42.024;23.098;2022-12-04T01:36:16;97638.28;;;4.53;100.00
9709;BME280;4893;42.024;23.098;2022-12-04T01:38:42;97725.88;;;5.05;100.00
9709;BME280;4893;42.024;23.098;2022-12-04T01:41:10;97727.75;;;5.03;100.00
9709;BME280;4893;42.024;23.098;2022-12-04T01:43:37;97686.41;;;4.84;100.00
9709;BME280;4893;42.024;23.098;2022-12-04T01:46:04;97723.03;;;5.19;100.00
9709;BME280;4893;42.024;23.098;2022-12-04T01:48:36;97719.94;;;5.25;100.00
9709;BME280;4893;42.024;23.098;2022-12-04T01:51:13;97697.84;;;5.23;100.00
9709;BME280;4893;42.024;23.098;2022-12-04T01:53:54;97719.31;;;5.44;100.00
9709;BME280;4893;42.024;23.098;2022-12-04T01:56:23;97711.59;;;5.44;100.00
9709;BME280;4893;42.024;23.098;2022-12-04T01:58:53;97703.41;;;5.39;100.00
9709;BME280;4893;42.024;23.098;2022-12-04T02:01:21;97643.56;;;4.94;100.00
9709;BME280;4893;42.024;23.098;2022-12-04T02:03:47;97653.97;;;4.93;100.00
9709;BME280;4893;42.024;23.098;2022-12-04T02:06:13;97715.50;;;5.27;100.00
9709;BME280;4893;42.024;23.098;2022-12-04T02:08:38;97665.78;;;4.95;100.00
9709;BME280;4893;42.024;23.098;2022-12-04T02:11:16;97708.41;;;5.20;100.00
9709;BME280;4893;42.024;23.098;2022-12-04T02:17:02;97649.13;;;4.68;100.00
9709;BME280;4893;42.024;23.098;2022-12-04T02:27:44;97729.25;;;5.06;100.00
9709;BME280;4893;42.024;23.098;2022-12-04T02:30:13;97715.84;;;5.02;100.00
9709;BME280;4893;42.024;23.098;2022-12-04T02:32:46;97709.53;;;4.95;100.00
9709;BME280;4893;42.024;23.098;2022-12-04T02:35:27;97713.63;;;4.87;100.00
9709;BME280;4893;42.024;23.098;2022-12-04T02:38:09;97714.25;;;4.79;100.00
9709;BME280;4893;42.024;23.098;2022-12-04T02:40:44;97718.19;;;4.83;100.00
9709;BME280;4893;42.024;23.098;2022-12-04T02:43:16;97656.28;;;4.53;100.00
9709;BME280;4893;42.024;23.098;2022-12-04T02:48:29;97623.91;;;4.40;100.00
9709;BME280;4893;42.024;23.098;2022-12-04T02:50:59;97644.16;;;4.33;100.00
9709;BME280;4893;42.024;23.098;2022-12-04T02:53:32;97718.94;;;4.63;100.00
9709;BME280;4893;42.024;23.098;2022-12-04T02:56:07;97707.00;;;4.62;100.00
9709;BME280;4893;42.024;23.098;2022-12-04T02:58:40;97709.91;;;4.69;100.00
9709;BME280;4893;42.024;23.098;2022-12-04T03:01:09;97663.31;;;4.40;100.00
9709;BME280;4893;42.024;23.098;2022-12-04T03:04:32;97644.63;;;4.27;100.00
9709;BME280;4893;42.024;23.098;2022-12-04T03:06:55;97718.69;;;4.77;100.00
9709;BME280;4893;42.024;23.098;2022-12-04T03:09:47;97712.13;;;4.62;100.00
9709;BME280;4893;42.024;23.098;2022-12-04T03:12:29;97715.66;;;4.61;100.00
9709;BME280;4893;42.024;23.098;2022-12-04T03:15:29;97711.09;;;4.65;100.00
9709;BME280;4893;42.024;23.098;2022-12-04T03:17:59;97710.03;;;4.67;100.00
9709;BME280;4893;42.024;23.098;2022-12-04T03:20:25;97721.97;;;4.68;100.00
9709;BME280;4893;42.024;23.098;2022-12-04T03:22:59;97707.34;;;4.58;100.00
9709;BME280;4893;42.024;23.098;2022-12-04T03:25:43;97643.09;;;4.13;100.00
9709;BME280;4893;42.024;23.098;2022-12-04T03:28:18;97650.81;;;4.13;100.00
9709;BME280;4893;42.024;23.098;2022-12-04T03:30:54;97694.75;;;4.44;100.00
9709;BME280;4893;42.024;23.098;2022-12-04T03:33:44;97721.41;;;4.54;100.00
9709;BME280;4893;42.024;23.098;2022-12-04T03:36:37;97719.16;;;4.49;100.00
9709;BME280;4893;42.024;23.098;2022-12-04T03:39:18;97729.22;;;4.30;100.00
9709;BME280;4893;42.024;23.098;2022-12-04T03:42:00;97645.09;;;3.77;100.00
9709;BME280;4893;42.024;23.098;2022-12-04T03:44:45;97662.84;;;3.80;100.00
9709;BME280;4893;42.024;23.098;2022-12-04T03:47:20;97650.47;;;3.74;100.00
9709;BME280;4893;42.024;23.098;2022-12-04T03:52:51;97710.75;;;4.14;100.00
9709;BME280;4893;42.024;23.098;2022-12-04T03:55:23;97714.72;;;4.07;100.00
9709;BME280;4893;42.024;23.098;2022-12-04T03:57:52;97724.50;;;3.91;100.00
9709;BME280;4893;42.024;23.098;2022-12-04T04:00:21;97654.50;;;3.43;100.00
9709;BME280;4893;42.024;23.098;2022-12-04T04:03:02;97723.34;;;3.84;100.00
9709;BME280;4893;42.024;23.098;2022-12-04T04:05:31;97728.00;;;3.90;100.00
9709;BME280;4893;42.024;23.098;2022-12-04T04:08:01;97723.56;;;3.81;100.00
9709;BME280;4893;42.024;23.098;2022-12-04T04:10:47;97531.69;;;2.69;100.00
9709;BME280;4893;42.024;23.098;2022-12-04T04:13:16;97728.84;;;3.90;100.00
9709;BME280;4893;42.024;23.098;2022-12-04T04:16:03;97727.78;;;3.93;100.00
9709;BME280;4893;42.024;23.098;2022-12-04T04:18:50;97668.91;;;3.68;100.00
9709;BME280;4893;42.024;23.098;2022-12-04T04:21:38;97723.50;;;4.15;100.00
9709;BME280;4893;42.024;23.098;2022-12-04T04:24:51;97720.56;;;4.20;100.00
9709;BME280;4893;42.024;23.098;2022-12-04T04:27:18;97727.59;;;4.18;100.00
9709;BME280;4893;42.024;23.098;2022-12-04T04:29:43;97645.44;;;3.72;100.00
9709;BME280;4893;42.024;23.098;2022-12-04T04:43:31;97733.91;;;4.58;100.00
9709;BME280;4893;42.024;23.098;2022-12-04T04:46:05;97730.16;;;4.62;100.00
9709;BME280;4893;42.024;23.098;2022-12-04T04:48:43;97728.41;;;4.63;100.00
9709;BME280;4893;42.024;23.098;2022-12-04T04:51:10;97731.78;;;4.74;100.00
9709;BME280;4893;42.024;23.098;2022-12-04T04:53:46;97723.59;;;4.80;100.00
9709;BME280;4893;42.024;23.098;2022-12-04T04:56:12;97729.31;;;4.84;100.00
9709;BME280;4893;42.024;23.098;2022-12-04T04:58:38;97531.97;;;3.67;100.00
9709;BME280;4893;42.024;23.098;2022-12-04T05:01:10;97731.03;;;5.05;100.00
9709;BME280;4893;42.024;23.098;2022-12-04T05:03:37;97740.63;;;5.03;100.00
9709;BME280;4893;42.024;23.098;2022-12-04T05:06:03;97670.19;;;4.62;100.00
9709;BME280;4893;42.024;23.098;2022-12-04T05:08:28;97735.84;;;4.99;100.00
9709;BME280;4893;42.024;23.098;2022-12-04T05:10:54;97736.88;;;5.07;100.00
9709;BME280;4893;42.024;23.098;2022-12-04T05:13:20;97718.06;;;4.96;100.00
9709;BME280;4893;42.024;23.098;2022-12-04T05:18:21;97736.06;;;5.07;100.00
9709;BME280;4893;42.024;23.098;2022-12-04T05:20:46;97730.31;;;5.03;100.00
9709;BME280;4893;42.024;23.098;2022-12-04T05:23:12;97734.19;;;4.98;100.00
9709;BME280;4893;42.024;23.098;2022-12-04T05:25:37;97745.34;;;4.87;100.00
9709;BME280;4893;42.024;23.098;2022-12-04T05:28:03;97737.63;;;4.76;100.00
9709;BME280;4893;42.024;23.098;2022-12-04T05:30:28;97755.25;;;4.92;100.00
9709;BME280;4893;42.024;23.098;2022-12-04T05:32:53;97754.56;;;5.01;100.00
9709;BME280;4893;42.024;23.098;2022-12-04T05:35:19;97718.31;;;4.93;100.00
9709;BME280;4893;42.024;23.098;2022-12-04T05:37:44;97738.25;;;5.11;100.00
9709;BME280;4893;42.024;23.098;2022-12-04T05:40:10;97667.00;;;4.69;100.00
9709;BME280;4893;42.024;23.098;2022-12-04T05:42:35;97730.03;;;5.17;100.00
9709;BME280;4893;42.024;23.098;2022-12-04T05:45:01;97738.34;;;5.21;100.00
9709;BME280;4893;42.024;23.098;2022-12-04T05:47:26;97678.34;;;4.78;100.00
9709;BME280;4893;42.024;23.098;2022-12-04T05:49:52;97669.66;;;4.79;100.00
9709;BME280;4893;42.024;23.098;2022-12-04T05:52:17;97695.69;;;4.96;100.00
9709;BME280;4893;42.024;23.098;2022-12-04T05:54:42;97672.56;;;4.85;100.00
9709;BME280;4893;42.024;23.098;2022-12-04T05:57:08;97618.19;;;4.47;100.00
9709;BME280;4893;42.024;23.098;2022-12-04T05:59:34;97663.03;;;4.76;100.00
9709;BME280;4893;42.024;23.098;2022-12-04T06:01:59;97656.69;;;4.80;100.00
9709;BME280;4893;42.024;23.098;2022-12-04T06:04:25;97653.88;;;4.83;100.00
9709;BME280;4893;42.024;23.098;2022-12-04T06:06:52;97680.00;;;4.99;100.00
9709;BME280;4893;42.024;23.098;2022-12-04T06:09:18;97649.63;;;4.93;100.00
9709;BME280;4893;42.024;23.098;2022-12-04T06:11:43;97679.31;;;5.08;100.00
9709;BME280;4893;42.024;23.098;2022-12-04T06:14:12;97752.03;;;5.53;100.00
9709;BME280;4893;42.024;23.098;2022-12-04T06:16:41;97680.13;;;5.09;100.00
9709;BME280;4893;42.024;23.098;2022-12-04T06:19:10;97746.19;;;5.19;100.00
9709;BME280;4893;42.024;23.098;2022-12-04T06:21:38;97764.16;;;5.41;100.00
9709;BME280;4893;42.024;23.098;2022-12-04T06:24:05;97752.22;;;5.40;100.00
9709;BME280;4893;42.024;23.098;2022-12-04T06:26:31;97775.81;;;5.56;100.00
9709;BME280;4893;42.024;23.098;2022-12-04T06:28:58;97765.00;;;5.62;100.00
9709;BME280;4893;42.024;23.098;2022-12-04T06:31:26;97746.50;;;5.68;100.00
9709;BME280;4893;42.024;23.098;2022-12-04T06:33:53;97767.53;;;5.85;100.00
9709;BME280;4893;42.024;23.098;2022-12-04T06:36:19;97771.25;;;5.81;100.00
9709;BME280;4893;42.024;23.098;2022-12-04T06:38:47;97753.34;;;5.79;100.00
9709;BME280;4893;42.024;23.098;2022-12-04T06:41:15;97755.13;;;5.79;100.00
9709;BME280;4893;42.024;23.098;2022-12-04T06:43:42;97682.94;;;5.37;100.00
9709;BME280;4893;42.024;23.098;2022-12-04T06:46:10;97746.22;;;5.83;100.00
9709;BME280;4893;42.024;23.098;2022-12-04T06:48:37;97716.16;;;5.72;100.00
9709;BME280;4893;42.024;23.098;2022-12-04T06:51:09;97734.25;;;5.82;100.00
9709;BME280;4893;42.024;23.098;2022-12-04T06:53:35;97768.16;;;5.98;100.00
9709;BME280;4893;42.024;23.098;2022-12-04T06:56:03;97699.97;;;5.49;100.00
9709;BME280;4893;42.024;23.098;2022-12-04T06:58:30;97758.84;;;5.86;100.00
9709;BME280;4893;42.024;23.098;2022-12-04T07:00:56;97771.97;;;6.03;100.00
9709;BME280;4893;42.024;23.098;2022-12-04T07:03:22;97679.38;;;5.49;100.00
9709;BME280;4893;42.024;23.098;2022-12-04T07:05:48;97691.16;;;5.52;100.00
9709;BME280;4893;42.024;23.098;2022-12-04T07:08:14;97765.13;;;6.13;100.00
9709;BME280;4893;42.024;23.098;2022-12-04T07:10:40;97757.13;;;6.16;100.00
9709;BME280;4893;42.024;23.098;2022-12-04T07:13:06;97682.69;;;5.82;100.00
9709;BME280;4893;42.024;23.098;2022-12-04T07:15:32;97756.38;;;6.25;100.00
9709;BME280;4893;42.024;23.098;2022-12-04T07:17:59;97752.16;;;6.45;100.00
9709;BME280;4893;42.024;23.098;2022-12-04T07:20:25;97689.28;;;6.16;100.00
9709;BME280;4893;42.024;23.098;2022-12-04T07:22:50;97756.16;;;6.68;100.00
9709;BME280;4893;42.024;23.098;2022-12-04T07:25:16;97753.25;;;6.82;100.00
9709;BME280;4893;42.024;23.098;2022-12-04T07:27:41;97716.31;;;6.51;100.00
9709;BME280;4893;42.024;23.098;2022-12-04T07:30:08;97735.34;;;6.60;100.00
9709;BME280;4893;42.024;23.098;2022-12-04T07:32:34;97783.41;;;6.81;100.00
9709;BME280;4893;42.024;23.098;2022-12-04T07:35:00;97619.16;;;5.92;100.00
9709;BME280;4893;42.024;23.098;2022-12-04T07:37:25;97723.94;;;6.53;100.00
9709;BME280;4893;42.024;23.098;2022-12-04T07:39:51;97717.84;;;6.63;100.00
9709;BME280;4893;42.024;23.098;2022-12-04T07:42:18;97766.66;;;7.25;100.00
9709;BME280;4893;42.024;23.098;2022-12-04T07:44:43;97790.91;;;7.43;100.00
9709;BME280;4893;42.024;23.098;2022-12-04T07:47:09;97771.47;;;7.49;100.00
9709;BME280;4893;42.024;23.098;2022-12-04T07:49:34;97721.41;;;7.21;100.00
9709;BME280;4893;42.024;23.098;2022-12-04T07:51:59;97789.00;;;7.55;100.00
9709;BME280;4893;42.024;23.098;2022-12-04T07:54:25;97787.81;;;7.68;100.00
9709;BME280;4893;42.024;23.098;2022-12-04T07:56:50;97777.16;;;7.52;100.00
9709;BME280;4893;42.024;23.098;2022-12-04T07:59:16;97790.13;;;7.62;100.00
9709;BME280;4893;42.024;23.098;2022-12-04T08:01:41;97777.84;;;7.45;100.00
9709;BME280;4893;42.024;23.098;2022-12-04T08:04:09;97732.56;;;7.41;100.00
9709;BME280;4893;42.024;23.098;2022-12-04T08:06:35;97793.22;;;7.65;100.00
9709;BME280;4893;42.024;23.098;2022-12-04T08:09:00;97737.38;;;6.96;100.00
9709;BME280;4893;42.024;23.098;2022-12-04T08:11:27;97735.59;;;6.87;100.00
9709;BME280;4893;42.024;23.098;2022-12-04T08:13:57;97758.16;;;6.94;100.00
9709;BME280;4893;42.024;23.098;2022-12-04T08:16:24;97810.31;;;7.28;100.00
9709;BME280;4893;42.024;23.098;2022-12-04T08:18:51;97719.03;;;6.99;100.00
9709;BME280;4893;42.024;23.098;2022-12-04T08:21:21;97793.47;;;7.43;100.00
9709;BME280;4893;42.024;23.098;2022-12-04T08:23:49;97747.44;;;6.99;100.00
9709;BME280;4893;42.024;23.098;2022-12-04T08:26:15;97799.75;;;7.50;100.00
9709;BME280;4893;42.024;23.098;2022-12-04T08:28:41;97791.59;;;7.64;100.00
9709;BME280;4893;42.024;23.098;2022-12-04T08:31:28;97801.66;;;7.67;100.00
9709;BME280;4893;42.024;23.098;2022-12-04T08:33:56;97801.66;;;7.58;100.00
9709;BME280;4893;42.024;23.098;2022-12-04T08:36:22;97783.56;;;7.48;100.00
9709;BME280;4893;42.024;23.098;2022-12-04T08:38:48;97724.91;;;7.20;100.00
9709;BME280;4893;42.024;23.098;2022-12-04T08:41:16;97791.31;;;7.67;100.00
9709;BME280;4893;42.024;23.098;2022-12-04T08:43:42;97789.72;;;7.76;100.00
9709;BME280;4893;42.024;23.098;2022-12-04T08:46:10;97789.16;;;7.91;100.00
9709;BME280;4893;42.024;23.098;2022-12-04T08:48:36;97787.63;;;8.17;100.00
9709;BME280;4893;42.024;23.098;2022-12-04T08:51:02;97724.72;;;8.07;100.00
9709;BME280;4893;42.024;23.098;2022-12-04T08:53:29;97766.00;;;8.65;100.00
9709;BME280;4893;42.024;23.098;2022-12-04T08:55:55;97786.66;;;8.84;100.00
9709;BME280;4893;42.024;23.098;2022-12-04T08:58:21;97780.09;;;8.53;100.00
9709;BME280;4893;42.024;23.098;2022-12-04T09:00:46;97705.38;;;8.67;100.00
9709;BME280;4893;42.024;23.098;2022-12-04T09:03:16;97781.91;;;9.06;100.00
9709;BME280;4893;42.024;23.098;2022-12-04T09:05:43;97709.16;;;8.73;100.00
9709;BME280;4893;42.024;23.098;2022-12-04T09:08:13;97726.16;;;9.02;100.00
9709;BME280;4893;42.024;23.098;2022-12-04T09:10:39;97741.06;;;9.18;100.00
9709;BME280;4893;42.024;23.098;2022-12-04T09:13:04;97760.28;;;9.42;100.00
9709;BME280;4893;42.024;23.098;2022-12-04T09:15:30;97760.81;;;9.46;100.00
9709;BME280;4893;42.024;23.098;2022-12-04T09:17:56;97688.81;;;8.78;100.00
9709;BME280;4893;42.024;23.098;2022-12-04T09:20:21;97735.47;;;9.40;100.00
9709;BME280;4893;42.024;23.098;2022-12-04T09:22:47;97735.31;;;9.24;100.00
9709;BME280;4893;42.024;23.098;2022-12-04T09:25:12;97712.28;;;9.56;100.00
9709;BME280;4893;42.024;23.098;2022-12-04T09:27:38;97722.94;;;9.18;100.00
9709;BME280;4893;42.024;23.098;2022-12-04T09:30:08;97712.03;;;9.14;100.00
9709;BME280;4893;42.024;23.098;2022-12-04T09:32:35;97727.78;;;9.48;100.00
9709;BME280;4893;42.024;23.098;2022-12-04T09:35:01;97717.31;;;9.57;100.00
9709;BME280;4893;42.024;23.098;2022-12-04T09:37:27;97711.22;;;9.66;100.00
9709;BME280;4893;42.024;23.098;2022-12-04T09:39:52;97702.88;;;9.55;100.00
9709;BME280;4893;42.024;23.098;2022-12-04T09:47:35;97644.09;;;9.03;100.00
9709;BME280;4893;42.024;23.098;2022-12-04T09:53:15;97684.06;;;9.53;100.00
9709;BME280;4893;42.024;23.098;2022-12-04T09:56:11;97679.38;;;9.74;100.00
9709;BME280;4893;42.024;23.098;2022-12-04T09:58:54;97586.19;;;9.55;100.00
9709;BME280;4893;42.024;23.098;2022-12-04T10:01:26;97638.81;;;9.99;100.00
9709;BME280;4893;42.024;23.098;2022-12-04T10:03:53;97637.81;;;9.92;100.00
9709;BME280;4893;42.024;23.098;2022-12-04T10:08:50;97570.47;;;9.31;100.00
9709;BME280;4893;42.024;23.098;2022-12-04T10:11:55;97636.69;;;9.68;100.00
9709;BME280;4893;42.024;23.098;2022-12-04T10:15:12;97634.19;;;9.84;100.00
9709;BME280;4893;42.024;23.098;2022-12-04T10:18:09;97622.25;;;9.92;100.00
9709;BME280;4893;42.024;23.098;2022-12-04T10:25:59;97596.81;;;9.95;100.00
9709;BME280;4893;42.024;23.098;2022-12-04T10:28:30;97630.78;;;10.35;100.00
9709;BME280;4893;42.024;23.098;2022-12-04T10:31:00;97633.09;;;10.46;100.00
9709;BME280;4893;42.024;23.098;2022-12-04T10:33:37;97627.44;;;10.59;100.00
9709;BME280;4893;42.024;23.098;2022-12-04T10:36:04;97550.28;;;10.27;100.00
9709;BME280;4893;42.024;23.098;2022-12-04T10:39:05;97619.34;;;10.70;100.00
9709;BME280;4893;42.024;23.098;2022-12-04T10:41:42;97599.00;;;10.49;100.00
9709;BME280;4893;42.024;23.098;2022-12-04T10:44:14;97543.91;;;10.22;100.00
9709;BME280;4893;42.024;23.098;2022-12-04T10:46:40;97568.66;;;10.42;100.00
9709;BME280;4893;42.024;23.098;2022-12-04T10:49:18;97621.69;;;10.81;100.00
9709;BME280;4893;42.024;23.098;2022-12-04T10:51:46;97525.19;;;10.60;100.00
9709;BME280;4893;42.024;23.098;2022-12-04T10:56:51;97536.38;;;10.60;100.00
9709;BME280;4893;42.024;23.098;2022-12-04T10:59:17;97610.50;;;11.12;100.00
9709;BME280;4893;42.024;23.098;2022-12-04T11:01:43;97598.81;;;11.08;100.00
9709;BME280;4893;42.024;23.098;2022-12-04T11:04:19;97597.53;;;11.20;100.00
9709;BME280;4893;42.024;23.098;2022-12-04T11:06:47;97605.16;;;11.38;100.00
9709;BME280;4893;42.024;23.098;2022-12-04T11:09:21;97531.88;;;11.02;100.00
9709;BME280;4893;42.024;23.098;2022-12-04T11:11:48;97604.34;;;11.54;100.00
9709;BME280;4893;42.024;23.098;2022-12-04T11:14:17;97544.06;;;11.18;100.00
9709;BME280;4893;42.024;23.098;2022-12-04T11:16:46;97612.81;;;11.56;100.00
9709;BME280;4893;42.024;23.098;2022-12-04T11:19:21;97536.41;;;11.41;100.00
9709;BME280;4893;42.024;23.098;2022-12-04T11:21:47;97600.28;;;11.91;100.00
9709;BME280;4893;42.024;23.098;2022-12-04T11:24:34;97592.31;;;11.85;100.00
9709;BME280;4893;42.024;23.098;2022-12-04T11:27:01;97539.63;;;11.59;100.00
9709;BME280;4893;42.024;23.098;2022-12-04T11:29:46;97587.91;;;11.85;100.00
9709;BME280;4893;42.024;23.098;2022-12-04T11:32:24;97548.84;;;11.85;100.00
9709;BME280;4893;42.024;23.098;2022-12-04T11:34:52;97545.25;;;11.94;100.00
9709;BME280;4893;42.024;23.098;2022-12-04T11:37:32;97601.28;;;12.29;100.00
9709;BME280;4893;42.024;23.098;2022-12-04T11:40:00;97606.28;;;12.46;100.00
9709;BME280;4893;42.024;23.098;2022-12-04T11:42:29;97598.94;;;12.42;100.00
9709;BME280;4893;42.024;23.098;2022-12-04T11:45:17;97607.03;;;12.55;100.00
9709;BME280;4893;42.024;23.098;2022-12-04T11:47:52;97618.66;;;12.75;100.00
9709;BME280;4893;42.024;23.098;2022-12-04T11:50:28;97616.44;;;12.64;100.00
9709;BME280;4893;42.024;23.098;2022-12-04T11:53:14;97617.63;;;12.84;100.00
9709;BME280;4893;42.024;23.098;2022-12-04T11:58:36;97409.22;;;11.62;100.00
9709;BME280;4893;42.024;23.098;2022-12-04T12:01:17;97627.00;;;13.01;100.00
9709;BME280;4893;42.024;23.098;2022-12-04T12:09:27;97602.50;;;13.84;100.00
9709;BME280;4893;42.024;23.098;2022-12-04T12:20:00;97595.16;;;13.51;100.00
9709;BME280;4893;42.024;23.098;2022-12-04T12:25:20;97584.69;;;13.73;100.00
9709;BME280;4893;42.024;23.098;2022-12-04T12:33:30;97509.22;;;13.49;100.00
9709;BME280;4893;42.024;23.098;2022-12-04T12:36:11;97574.41;;;13.72;100.00
9709;BME280;4893;42.024;23.098;2022-12-04T12:38:52;97569.59;;;13.46;100.00
9709;BME280;4893;42.024;23.098;2022-12-04T12:41:40;97572.53;;;13.29;100.00
9709;BME280;4893;42.024;23.098;2022-12-04T12:44:31;97549.72;;;13.23;100.00
9709;BME280;4893;42.024;23.098;2022-12-04T12:47:07;97556.94;;;13.21;100.00
9709;BME280;4893;42.024;23.098;2022-12-04T12:52:36;97565.44;;;12.92;100.00
9709;BME280;4893;42.024;23.098;2022-12-04T12:55:13;97549.22;;;12.82;100.00
9709;BME280;4893;42.024;23.098;2022-12-04T12:57:42;97556.94;;;12.98;100.00
9709;BME280;4893;42.024;23.098;2022-12-04T13:00:20;97550.44;;;12.94;100.00
9709;BME280;4893;42.024;23.098;2022-12-04T13:05:13;97555.16;;;12.68;100.00
9709;BME280;4893;42.024;23.098;2022-12-04T13:08:05;97558.41;;;12.70;100.00
9709;BME280;4893;42.024;23.098;2022-12-04T13:10:48;97543.00;;;12.61;100.00
9709;BME280;4893;42.024;23.098;2022-12-04T13:13:21;97563.97;;;12.67;100.00
9709;BME280;4893;42.024;23.098;2022-12-04T13:16:09;97555.94;;;12.46;100.00
9709;BME280;4893;42.024;23.098;2022-12-04T13:18:45;97555.69;;;12.33;100.00
9709;BME280;4893;42.024;23.098;2022-12-04T13:21:35;97558.69;;;12.14;100.00
9709;BME280;4893;42.024;23.098;2022-12-04T13:37:49;97569.84;;;11.84;100.00
9709;BME280;4893;42.024;23.098;2022-12-04T13:43:03;97559.97;;;11.63;100.00
9709;BME280;4893;42.024;23.098;2022-12-04T13:45:31;97572.50;;;11.68;100.00
9709;BME280;4893;42.024;23.098;2022-12-04T13:47:59;97547.47;;;11.51;100.00
9709;BME280;4893;42.024;23.098;2022-12-04T13:50:35;97574.59;;;11.64;100.00
9709;BME280;4893;42.024;23.098;2022-12-04T13:53:01;97496.59;;;11.24;100.00
9709;BME280;4893;42.024;23.098;2022-12-04T13:55:35;97571.38;;;11.70;100.00
9709;BME280;4893;42.024;23.098;2022-12-04T13:58:21;97505.22;;;11.33;100.00
9709;BME280;4893;42.024;23.098;2022-12-04T14:01:21;97516.28;;;11.35;100.00
9709;BME280;4893;42.024;23.098;2022-12-04T14:03:49;97515.59;;;11.41;100.00
9709;BME280;4893;42.024;23.098;2022-12-04T14:06:36;97586.81;;;11.72;100.00
9709;BME280;4893;42.024;23.098;2022-12-04T14:09:27;97584.22;;;11.64;100.00
9709;BME280;4893;42.024;23.098;2022-12-04T14:11:56;97514.97;;;11.14;100.00
9709;BME280;4893;42.024;23.098;2022-12-04T14:14:52;97596.25;;;11.65;100.00
9709;BME280;4893;42.024;23.098;2022-12-04T14:17:29;97594.28;;;11.51;100.00
9709;BME280;4893;42.024;23.098;2022-12-04T14:19:58;97593.78;;;11.39;100.00
9709;BME280;4893;42.024;23.098;2022-12-04T14:22:40;97529.94;;;10.96;100.00
9709;BME280;4893;42.024;23.098;2022-12-04T14:29:58;97514.81;;;10.76;100.00
9709;BME280;4893;42.024;23.098;2022-12-04T14:32:28;97518.38;;;10.75;100.00
9709;BME280;4893;42.024;23.098;2022-12-04T14:34:55;97569.56;;;11.06;100.00
9709;BME280;4893;42.024;23.098;2022-12-04T14:37:28;97601.28;;;11.26;100.00
9709;BME280;4893;42.024;23.098;2022-12-04T14:39:56;97619.31;;;11.28;100.00
9709;BME280;4893;42.024;23.098;2022-12-04T14:42:24;97612.28;;;11.12;100.00
9709;BME280;4893;42.024;23.098;2022-12-04T14:44:54;97617.19;;;11.07;100.00
9709;BME280;4893;42.024;23.098;2022-12-04T14:47:30;97544.84;;;10.62;100.00
9709;BME280;4893;42.024;23.098;2022-12-04T14:55:51;97620.41;;;11.01;100.00
9709;BME280;4893;42.024;23.098;2022-12-04T14:58:21;97606.25;;;10.79;100.00
9709;BME280;4893;42.024;23.098;2022-12-04T15:03:49;97563.81;;;10.47;100.00
9709;BME280;4893;42.024;23.098;2022-12-04T15:06:29;97632.53;;;10.76;100.00
9709;BME280;4893;42.024;23.098;2022-12-04T15:09:00;97604.22;;;10.57;100.00
9709;BME280;4893;42.024;23.098;2022-12-04T15:11:50;97546.03;;;10.26;100.00
9709;BME280;4893;42.024;23.098;2022-12-04T15:14:39;97620.84;;;10.72;100.00
9709;BME280;4893;42.024;23.098;2022-12-04T15:17:05;97627.31;;;10.68;100.00
9709;BME280;4893;42.024;23.098;2022-12-04T15:19:30;97565.06;;;10.35;100.00